Time;durP1;ratioP1;P1;durP2;ratioP2;P2;SDS_P1;SDS_P2;PMS_P1;PMS_P2;Temp;Humidity;BMP_temperature;BMP_pressure;BME280_temperature;BME280_humidity;BME280_pressure;Samples;Min_cycle;Max_cycle;Signal;HPM_P1;HPM_P2
2023/03/12 00:00:52;;;;;;;6.63;2.73;;;;;;;;;;6256694;28;20380;-78
2023/03/12 00:03:53;;;;;;;2.13;2.03;;;;;;;;;;6235870;28;20021;-78
2023/03/12 00:06:53;;;;;;;3.30;3.03;;;;;;;;;;6268844;28;20067;-78
2023/03/12 00:09:53;;;;;;;0.43;0.43;;;;;;;;;;6271029;28;20031;-78
2023/03/12 00:12:54;;;;;;;0.40;0.40;;;;;;;;;;6241134;28;20053;-78
2023/03/12 00:15:54;;;;;;;1.43;1.43;;;;;;;;;;6223590;28;20411;-78
2023/03/12 00:18:54;;;;;;;3.30;3.10;;;;;;;;;;6214951;28;20431;-78
2023/03/12 00:21:55;;;;;;;0.73;0.73;;;;;;;;;;6223024;28;20057;-78
2023/03/12 00:24:55;;;;;;;0.40;0.40;;;;;;;;;;6222635;28;20018;-78
2023/03/12 00:27:56;;;;;;;0.87;0.87;;;;;;;;;;6210515;28;20109;-78
2023/03/12 00:30:57;;;;;;;0.30;0.30;;;;;;;;;;6223872;28;20022;-79
2023/03/12 00:33:57;;;;;;;3.95;1.55;;;;;;;;;;6216470;28;20049;-79
2023/03/12 00:36:59;;;;;;;1.00;1.00;;;;;;;;;;6222994;28;20538;-79
2023/03/12 00:40:00;;;;;;;0.30;0.30;;;;;;;;;;6223268;28;20476;-79
2023/03/12 00:43:00;;;;;;;1.02;1.02;;;;;;;;;;6222430;28;20387;-79
2023/03/12 00:46:01;;;;;;;2.93;2.33;;;;;;;;;;6223367;28;20024;-79
2023/03/12 00:49:01;;;;;;;2.23;2.13;;;;;;;;;;6216976;28;20052;-79
2023/03/12 00:52:03;;;;;;;0.50;0.50;;;;;;;;;;6218132;28;20398;-79
2023/03/12 00:55:03;;;;;;;0.30;0.30;;;;;;;;;;6223842;28;20113;-79
2023/03/12 00:58:04;;;;;;;0.40;0.40;;;;;;;;;;6221828;28;20028;-79
2023/03/12 01:01:05;;;;;;;1.42;1.35;;;;;;;;;;6207519;28;20407;-79
2023/03/12 01:04:05;;;;;;;0.50;0.50;;;;;;;;;;6215854;28;20034;-79
2023/03/12 01:07:05;;;;;;;0.67;0.67;;;;;;;;;;6222060;28;20029;-79
2023/03/12 01:10:06;;;;;;;1.37;1.37;;;;;;;;;;6224870;28;20034;-78
2023/03/12 01:13:06;;;;;;;2.70;2.10;;;;;;;;;;6238786;28;20415;-77
2023/03/12 01:16:06;;;;;;;2.00;1.53;;;;;;;;;;6250319;28;20013;-77
2023/03/12 01:19:06;;;;;;;0.30;0.30;;;;;;;;;;6244739;28;20052;-78
2023/03/12 01:22:07;;;;;;;0.30;0.30;;;;;;;;;;6250750;28;20456;-78
2023/03/12 01:25:07;;;;;;;1.90;1.73;;;;;;;;;;6229340;28;20025;-78
2023/03/12 01:28:08;;;;;;;0.73;0.73;;;;;;;;;;6256624;28;20035;-78
2023/03/12 01:31:10;;;;;;;0.30;0.30;;;;;;;;;;6231727;28;20029;-78
2023/03/12 01:34:11;;;;;;;0.28;0.28;;;;;;;;;;6247285;28;20021;-78
2023/03/12 01:37:11;;;;;;;0.63;0.63;;;;;;;;;;6244652;28;20156;-78
2023/03/12 01:40:14;;;;;;;0.47;0.47;;;;;;;;;;6244168;28;20029;-78
2023/03/12 01:43:29;;;;;;;1.00;1.00;;;;;;;;;;6223451;28;20084;-78
2023/03/12 01:46:29;;;;;;;0.30;0.30;;;;;;;;;;6246221;28;20033;-78
2023/03/12 01:49:31;;;;;;;0.50;0.50;;;;;;;;;;6228867;28;20113;-78
2023/03/12 01:52:34;;;;;;;0.43;0.43;;;;;;;;;;6251961;28;20029;-78
2023/03/12 01:55:34;;;;;;;0.30;0.30;;;;;;;;;;6263909;28;20071;-78
2023/03/12 01:58:36;;;;;;;0.73;0.73;;;;;;;;;;6253773;28;20025;-78
2023/03/12 02:01:37;;;;;;;2.78;2.47;;;;;;;;;;6246059;28;20391;-78
2023/03/12 02:04:39;;;;;;;0.57;0.57;;;;;;;;;;6233240;28;20052;-77
2023/03/12 02:07:39;;;;;;;;;;;;;;;;;;6253658;28;20017;-77
2023/03/12 02:10:39;;;;;;;0.43;0.43;;;;;;;;;;6252727;28;19917;-78
2023/03/12 02:13:40;;;;;;;1.67;1.57;;;;;;;;;;6254131;28;20313;-78
2023/03/12 02:16:40;;;;;;;0.97;0.97;;;;;;;;;;6246863;28;20025;-78
2023/03/12 02:19:43;;;;;;;0.60;0.60;;;;;;;;;;6264560;28;20387;-78
2023/03/12 02:22:49;;;;;;;0.30;0.30;;;;;;;;;;6272075;28;20021;-78
2023/03/12 02:25:50;;;;;;;3.53;1.40;;;;;;;;;;6261597;28;20044;-78
2023/03/12 02:28:51;;;;;;;2.03;1.93;;;;;;;;;;6266664;28;20055;-77
2023/03/12 02:31:53;;;;;;;3.83;2.03;;;;;;;;;;6231508;28;20033;-78
2023/03/12 02:34:55;;;;;;;2.25;2.13;;;;;;;;;;6211585;28;20013;-77
2023/03/12 02:37:55;;;;;;;1.58;1.50;;;;;;;;;;6257155;28;20029;-77
2023/03/12 02:40:57;;;;;;;2.30;2.20;;;;;;;;;;6261948;28;20061;-78
2023/03/12 02:44:08;;;;;;;0.82;0.82;;;;;;;;;;6267898;28;20028;-78
2023/03/12 02:47:09;;;;;;;0.77;0.77;;;;;;;;;;6259163;28;20049;-78
2023/03/12 02:50:09;;;;;;;0.77;0.77;;;;;;;;;;6254603;28;20507;-78
2023/03/12 02:53:09;;;;;;;1.23;1.23;;;;;;;;;;6262711;28;20028;-77
2023/03/12 02:56:09;;;;;;;1.80;1.60;;;;;;;;;;6263857;28;20036;-77
2023/03/12 02:59:10;;;;;;;2.33;2.23;;;;;;;;;;6245637;28;20052;-77
2023/03/12 03:02:11;;;;;;;0.80;0.80;;;;;;;;;;6266799;28;20017;-78
2023/03/12 03:05:12;;;;;;;1.85;1.75;;;;;;;;;;6244468;28;20033;-78
2023/03/12 03:08:12;;;;;;;1.50;1.50;;;;;;;;;;6240755;28;20027;-78
2023/03/12 03:11:13;;;;;;;2.43;2.33;;;;;;;;;;6256968;28;20386;-77
2023/03/12 03:14:14;;;;;;;1.92;1.92;;;;;;;;;;6258660;28;20052;-78
2023/03/12 03:17:14;;;;;;;15.93;4.23;;;;;;;;;;6246156;28;20029;-78
2023/03/12 03:20:14;;;;;;;2.73;2.63;;;;;;;;;;6259659;28;20043;-78
2023/03/12 03:23:14;;;;;;;0.90;0.90;;;;;;;;;;6262224;28;20026;-78
2023/03/12 03:26:16;;;;;;;1.87;1.77;;;;;;;;;;6240979;28;20474;-78
2023/03/12 03:29:16;;;;;;;6.75;3.78;;;;;;;;;;6231882;28;20108;-78
2023/03/12 03:32:16;;;;;;;1.73;1.70;;;;;;;;;;6255075;28;20031;-78
2023/03/12 03:35:17;;;;;;;2.20;2.10;;;;;;;;;;6246143;28;20087;-79
2023/03/12 03:38:17;;;;;;;0.73;0.73;;;;;;;;;;6244530;28;20033;-78
2023/03/12 03:41:18;;;;;;;1.33;1.27;;;;;;;;;;6257214;28;20032;-79
2023/03/12 03:44:18;;;;;;;1.07;1.03;;;;;;;;;;6244322;28;20022;-79
2023/03/12 03:47:18;;;;;;;1.70;1.60;;;;;;;;;;6244013;28;20629;-80
2023/03/12 03:50:19;;;;;;;2.00;1.90;;;;;;;;;;6257687;28;20021;-79
2023/03/12 03:53:19;;;;;;;2.03;1.97;;;;;;;;;;6260263;28;20519;-80
2023/03/12 03:56:20;;;;;;;2.23;2.13;;;;;;;;;;6263565;28;20528;-80
2023/03/12 03:59:20;;;;;;;0.60;0.60;;;;;;;;;;6266621;28;20506;-80
2023/03/12 04:02:20;;;;;;;0.40;0.40;;;;;;;;;;6273323;28;20035;-80
2023/03/12 04:05:21;;;;;;;2.50;2.33;;;;;;;;;;6247875;28;20063;-81
2023/03/12 04:08:21;;;;;;;1.57;1.50;;;;;;;;;;6260852;28;20022;-81
2023/03/12 04:11:21;;;;;;;0.50;0.50;;;;;;;;;;6263314;28;20238;-81
2023/03/12 04:14:21;;;;;;;1.27;1.23;;;;;;;;;;6253966;28;20460;-82
2023/03/12 04:17:22;;;;;;;1.67;1.63;;;;;;;;;;6244509;28;20482;-82
2023/03/12 04:20:22;;;;;;;0.30;0.30;;;;;;;;;;6252543;28;20036;-82
2023/03/12 04:23:22;;;;;;;2.53;2.42;;;;;;;;;;6272077;28;20057;-83
2023/03/12 04:26:22;;;;;;;2.53;2.43;;;;;;;;;;6266539;28;20048;-83
2023/03/12 04:29:24;;;;;;;1.13;1.13;;;;;;;;;;6267213;28;20024;-84
2023/03/12 04:32:24;;;;;;;;;;;;;;;;;;6254208;28;20067;-84
2023/03/12 04:35:24;;;;;;;1.73;1.60;;;;;;;;;;6270966;28;19967;-84
2023/03/12 04:38:25;;;;;;;1.07;1.07;;;;;;;;;;6272606;28;20036;-85
2023/03/12 04:41:26;;;;;;;1.70;1.60;;;;;;;;;;6277120;28;20086;-85
2023/03/12 04:44:26;;;;;;;0.40;0.40;;;;;;;;;;6260219;28;20124;-85
2023/03/12 04:47:27;;;;;;;2.27;2.13;;;;;;;;;;6252331;28;20306;-85
2023/03/12 04:50:27;;;;;;;3.30;3.00;;;;;;;;;;6260893;28;20498;-85
2023/03/12 04:53:27;;;;;;;0.60;0.60;;;;;;;;;;6259942;28;20111;-86
2023/03/12 04:56:27;;;;;;;1.53;1.47;;;;;;;;;;6284052;28;20013;-85
2023/03/12 04:59:27;;;;;;;1.97;1.80;;;;;;;;;;6271120;28;20040;-86
2023/03/12 05:02:28;;;;;;;2.53;1.48;;;;;;;;;;6287990;28;20037;-85
2023/03/12 05:05:28;;;;;;;1.90;1.80;;;;;;;;;;6286428;28;20025;-86
2023/03/12 05:08:28;;;;;;;0.83;0.83;;;;;;;;;;6289362;28;20028;-87
2023/03/12 05:11:29;;;;;;;1.27;1.25;;;;;;;;;;6265761;28;20021;-87
2023/03/12 05:14:29;;;;;;;0.40;0.40;;;;;;;;;;6275782;28;20073;-85
2023/03/12 05:17:30;;;;;;;0.50;0.50;;;;;;;;;;6273205;28;20046;-84
2023/03/12 05:20:31;;;;;;;2.42;2.30;;;;;;;;;;6248418;28;20072;-85
2023/03/12 05:23:31;;;;;;;4.63;4.33;;;;;;;;;;6257609;28;20064;-87
2023/03/12 05:26:32;;;;;;;7.33;5.33;;;;;;;;;;6236530;28;20013;-85
2023/03/12 05:29:34;;;;;;;10.27;2.47;;;;;;;;;;6275048;28;20029;-86
2023/03/12 05:32:34;;;;;;;0.73;0.73;;;;;;;;;;6254897;28;20025;-85
2023/03/12 05:35:34;;;;;;;5.30;4.93;;;;;;;;;;6273340;28;20033;-88
2023/03/12 05:38:34;;;;;;;9.07;2.30;;;;;;;;;;6261203;28;20017;-87
2023/03/12 05:41:35;;;;;;;4.33;4.13;;;;;;;;;;6265554;28;20025;-88
2023/03/12 05:44:35;;;;;;;2.03;1.97;;;;;;;;;;6255969;28;20025;-85
2023/03/12 05:47:35;;;;;;;2.93;1.50;;;;;;;;;;6274578;28;20041;-87
2023/03/12 05:50:35;;;;;;;0.53;0.53;;;;;;;;;;6251792;28;20044;-86
2023/03/12 05:53:37;;;;;;;0.50;0.50;;;;;;;;;;6257306;28;20018;-85
2023/03/12 05:56:38;;;;;;;3.05;2.92;;;;;;;;;;6265599;28;20038;-86
2023/03/12 05:59:38;;;;;;;5.23;4.73;;;;;;;;;;6283403;28;20029;-85
2023/03/12 06:02:38;;;;;;;4.90;4.63;;;;;;;;;;6280111;28;20030;-85
2023/03/12 06:05:39;;;;;;;0.40;0.40;;;;;;;;;;6287016;28;20066;-86
2023/03/12 06:08:41;;;;;;;2.93;2.73;;;;;;;;;;6285279;28;20018;-87
2023/03/12 06:11:41;;;;;;;6.90;5.45;;;;;;;;;;6261012;22;20489;-88
2023/03/12 06:14:42;;;;;;;3.57;3.23;;;;;;;;;;6223433;28;20038;-88
2023/03/12 06:17:42;;;;;;;3.47;2.03;;;;;;;;;;6218504;28;20075;-88
2023/03/12 06:20:42;;;;;;;3.43;3.23;;;;;;;;;;6222926;28;20109;-88
2023/03/12 06:23:43;;;;;;;2.57;2.47;;;;;;;;;;6213718;28;20396;-88
2023/03/12 06:26:43;;;;;;;2.00;1.70;;;;;;;;;;6217155;28;20457;-88
2023/03/12 06:29:46;;;;;;;0.87;0.87;;;;;;;;;;6214431;28;20069;-88
2023/03/12 06:32:46;;;;;;;5.53;5.13;;;;;;;;;;6212842;28;20029;-88
2023/03/12 06:35:46;;;;;;;5.43;4.23;;;;;;;;;;6223602;28;20042;-87
2023/03/12 06:38:47;;;;;;;4.93;1.93;;;;;;;;;;6243409;28;20030;-87
2023/03/12 06:41:47;;;;;;;2.00;1.90;;;;;;;;;;6244070;28;20017;-88
2023/03/12 06:44:48;;;;;;;1.03;1.03;;;;;;;;;;6241946;28;20011;-88
2023/03/12 06:47:48;;;;;;;0.80;0.80;;;;;;;;;;6259067;28;20040;-88
2023/03/12 06:50:49;;;;;;;3.07;2.70;;;;;;;;;;6255395;28;21214;-87
2023/03/12 06:53:49;;;;;;;1.03;1.03;;;;;;;;;;6245693;28;20014;-87
2023/03/12 06:56:49;;;;;;;19.60;5.13;;;;;;;;;;6252485;28;20049;-88
2023/03/12 06:59:50;;;;;;;2.30;2.20;;;;;;;;;;6249807;28;20015;-88
2023/03/12 07:02:50;;;;;;;1.90;1.80;;;;;;;;;;6263282;28;20078;-88
2023/03/12 07:05:51;;;;;;;0.73;0.63;;;;;;;;;;6254943;28;20010;-88
2023/03/12 07:08:51;;;;;;;0.60;0.60;;;;;;;;;;6260019;28;20009;-88
2023/03/12 07:11:53;;;;;;;1.73;1.63;;;;;;;;;;6246080;28;20053;-87
2023/03/12 07:14:53;;;;;;;;;;;;;;;;;;6246800;28;20116;-89
2023/03/12 07:17:59;;;;;;;1.90;1.80;;;;;;;;;;6268626;28;19933;-89
2023/03/12 07:21:00;;;;;;;5.47;3.30;;;;;;;;;;6255031;28;20326;-90
2023/03/12 07:24:05;;;;;;;0.77;0.77;;;;;;;;;;6268245;28;20021;-90
2023/03/12 07:27:07;;;;;;;3.13;2.38;;;;;;;;;;6238791;28;20582;-90
2023/03/12 07:30:08;;;;;;;3.85;3.05;;;;;;;;;;6241749;28;20068;-91
2023/03/12 07:33:11;;;;;;;0.80;0.80;;;;;;;;;;6215455;28;20056;-91
2023/03/12 07:36:13;;;;;;;3.83;2.08;;;;;;;;;;6256592;28;20085;-90
2023/03/12 07:39:20;;;;;;;0.30;0.30;;;;;;;;;;6231576;28;20056;-91
2023/03/12 07:52:03;;;;;;;0.55;0.55;;;;;;;;;;6612552;23;20073;-84
2023/03/12 07:55:04;;;;;;;1.30;1.27;;;;;;;;;;6263218;28;20020;-83
2023/03/12 07:58:04;;;;;;;0.50;0.50;;;;;;;;;;6270737;28;20423;-82
2023/03/12 08:01:05;;;;;;;2.20;2.10;;;;;;;;;;6270520;28;20479;-82
2023/03/12 08:04:05;;;;;;;16.55;5.13;;;;;;;;;;6249509;28;20030;-82
2023/03/12 08:07:05;;;;;;;0.50;0.50;;;;;;;;;;6253397;28;20033;-83
2023/03/12 08:10:07;;;;;;;0.93;0.93;;;;;;;;;;6245936;28;20119;-83
2023/03/12 08:13:07;;;;;;;1.30;1.20;;;;;;;;;;6242044;28;20185;-78
2023/03/12 08:16:07;;;;;;;0.50;0.50;;;;;;;;;;6234483;28;20416;-78
2023/03/12 08:19:08;;;;;;;2.27;2.07;;;;;;;;;;6226199;28;20026;-80
2023/03/12 08:22:08;;;;;;;0.40;0.40;;;;;;;;;;6232784;28;20029;-80
2023/03/12 08:25:08;;;;;;;0.60;0.60;;;;;;;;;;6235024;28;20051;-82
2023/03/12 08:28:08;;;;;;;0.93;0.93;;;;;;;;;;6238413;28;20556;-83
2023/03/12 08:31:09;;;;;;;0.28;0.28;;;;;;;;;;6230245;28;20060;-79
2023/03/12 08:34:09;;;;;;;1.07;1.00;;;;;;;;;;6215566;28;20030;-78
2023/03/12 08:37:09;;;;;;;2.57;0.83;;;;;;;;;;6232065;28;20030;-77
2023/03/12 08:40:12;;;;;;;1.13;1.13;;;;;;;;;;6232745;28;20026;-76
2023/03/12 08:43:13;;;;;;;0.77;0.77;;;;;;;;;;6231883;28;20029;-78
2023/03/12 08:46:13;;;;;;;1.57;1.47;;;;;;;;;;6243176;28;20457;-78
2023/03/12 08:49:13;;;;;;;1.73;1.70;;;;;;;;;;6239416;28;20517;-79
2023/03/12 08:52:13;;;;;;;3.22;1.55;;;;;;;;;;6236475;28;20050;-79
2023/03/12 08:55:14;;;;;;;7.23;4.67;;;;;;;;;;6233400;28;20070;-78
2023/03/12 08:58:14;;;;;;;0.77;0.77;;;;;;;;;;6232037;28;20029;-83
2023/03/12 09:01:15;;;;;;;0.82;0.82;;;;;;;;;;6234140;28;20029;-82
2023/03/12 09:04:15;;;;;;;0.50;0.50;;;;;;;;;;6239136;28;20111;-83
2023/03/12 09:07:18;;;;;;;4.10;2.43;;;;;;;;;;6235303;28;20022;-83
2023/03/12 09:10:18;;;;;;;1.08;1.05;;;;;;;;;;6233622;28;20025;-82
2023/03/12 09:13:18;;;;;;;0.50;0.50;;;;;;;;;;6227456;28;20396;-83
2023/03/12 09:16:19;;;;;;;1.60;1.50;;;;;;;;;;6230964;28;20014;-84
2023/03/12 09:19:19;;;;;;;2.27;1.07;;;;;;;;;;6230403;28;20021;-83
2023/03/12 09:22:20;;;;;;;1.70;1.60;;;;;;;;;;6231562;28;20021;-81
2023/03/12 09:25:22;;;;;;;0.73;0.73;;;;;;;;;;6241289;28;20032;-80
2023/03/12 09:28:22;;;;;;;0.93;0.93;;;;;;;;;;6244883;28;20033;-81
2023/03/12 09:31:22;;;;;;;2.50;2.40;;;;;;;;;;6242217;28;20037;-82
2023/03/12 09:34:23;;;;;;;1.20;1.13;;;;;;;;;;6239612;28;20025;-83
2023/03/12 09:37:23;;;;;;;1.57;1.50;;;;;;;;;;6250024;28;20017;-83
2023/03/12 09:40:25;;;;;;;0.20;0.20;;;;;;;;;;6241385;28;20080;-83
2023/03/12 09:43:32;;;;;;;1.08;1.08;;;;;;;;;;6239373;28;20454;-83
2023/03/12 09:46:35;;;;;;;3.00;2.78;;;;;;;;;;6245599;28;20024;-81
2023/03/12 09:49:46;;;;;;;4.38;3.00;;;;;;;;;;6243658;28;21334;-81
2023/03/12 09:52:52;;;;;;;1.83;1.73;;;;;;;;;;6246023;28;20495;-83
2023/03/12 09:55:54;;;;;;;5.45;1.75;;;;;;;;;;6243610;28;20049;-84
2023/03/12 09:58:55;;;;;;;;;;;;;;;;;;6243458;28;20018;-83
2023/03/12 10:02:00;;;;;;;1.88;1.52;;;;;;;;;;6237242;28;20023;-82
2023/03/12 10:05:12;;;;;;;1.65;1.58;;;;;;;;;;6238613;28;20025;-84
2023/03/12 10:08:35;;;;;;;2.13;2.03;;;;;;;;;;6247197;28;20079;-84
2023/03/12 10:11:48;;;;;;;2.85;2.30;;;;;;;;;;6228904;28;20488;-82
2023/03/12 10:14:52;;;;;;;1.50;1.45;;;;;;;;;;6244633;28;20026;-83
2023/03/12 10:17:59;;;;;;;1.10;1.00;;;;;;;;;;6242900;28;20025;-81
2023/03/12 10:21:08;;;;;;;1.02;1.02;;;;;;;;;;6244316;28;20036;-82
2023/03/12 10:24:14;;;;;;;0.40;0.40;;;;;;;;;;6235995;28;20096;-79
2023/03/12 10:27:15;;;;;;;2.90;2.65;;;;;;;;;;6227684;28;20033;-79
2023/03/12 10:30:18;;;;;;;0.40;0.40;;;;;;;;;;6244112;28;20116;-79
2023/03/12 10:33:19;;;;;;;2.25;1.38;;;;;;;;;;6242751;28;20037;-81
2023/03/12 10:36:24;;;;;;;1.47;1.37;;;;;;;;;;6239913;28;20391;-79
2023/03/12 10:39:24;;;;;;;0.57;0.57;;;;;;;;;;6241001;28;20053;-82
2023/03/12 10:42:29;;;;;;;0.60;0.60;;;;;;;;;;6231299;28;20337;-79
2023/03/12 10:45:48;;;;;;;2.28;1.40;;;;;;;;;;6223327;28;20403;-79
2023/03/12 10:48:49;;;;;;;1.55;1.05;;;;;;;;;;6229536;28;20124;-78
2023/03/12 10:51:52;;;;;;;0.73;0.73;;;;;;;;;;6248737;28;20045;-78
2023/03/12 10:54:52;;;;;;;2.05;1.95;;;;;;;;;;6235303;28;20028;-78
2023/03/12 10:57:53;;;;;;;0.70;0.70;;;;;;;;;;6232936;28;20029;-77
2023/03/12 11:00:55;;;;;;;14.80;2.60;;;;;;;;;;6244151;28;20021;-76
2023/03/12 11:04:25;;;;;;;1.27;0.70;;;;;;;;;;6241453;28;20018;-76
2023/03/12 11:07:32;;;;;;;0.40;0.40;;;;;;;;;;6225766;28;20042;-77
2023/03/12 11:10:43;;;;;;;0.32;0.32;;;;;;;;;;6227110;28;20061;-77
2023/03/12 11:13:43;;;;;;;2.75;2.45;;;;;;;;;;6234396;28;20048;-77
2023/03/12 11:16:44;;;;;;;0.40;0.40;;;;;;;;;;6237464;28;20025;-77
2023/03/12 11:19:44;;;;;;;0.40;0.40;;;;;;;;;;6233867;28;20025;-76
2023/03/12 11:22:44;;;;;;;0.93;0.93;;;;;;;;;;6236686;28;20480;-77
2023/03/12 11:25:50;;;;;;;1.07;1.07;;;;;;;;;;6231756;28;20038;-77
2023/03/12 11:28:58;;;;;;;0.52;0.52;;;;;;;;;;6229188;28;20577;-78
2023/03/12 11:32:17;;;;;;;1.70;0.50;;;;;;;;;;6234379;28;20017;-79
2023/03/12 11:35:21;;;;;;;3.85;1.55;;;;;;;;;;6238496;28;20025;-79
2023/03/12 11:38:31;;;;;;;0.60;0.60;;;;;;;;;;6240512;28;20013;-78
2023/03/12 11:41:37;;;;;;;0.25;0.25;;;;;;;;;;6238579;28;20071;-78
2023/03/12 11:44:43;;;;;;;2.55;0.60;;;;;;;;;;6237156;28;20029;-78
2023/03/12 11:48:09;;;;;;;1.75;1.65;;;;;;;;;;6242140;28;20064;-78
2023/03/12 11:51:33;;;;;;;0.82;0.82;;;;;;;;;;6233008;28;20081;-78
2023/03/12 11:54:36;;;;;;;0.73;0.73;;;;;;;;;;6241605;28;20014;-78
2023/03/12 11:57:47;;;;;;;0.30;0.30;;;;;;;;;;6240849;28;20463;-78
2023/03/12 12:00:47;;;;;;;2.72;1.58;;;;;;;;;;6242389;28;20059;-79
2023/03/12 12:03:47;;;;;;;1.45;1.35;;;;;;;;;;6229592;28;20025;-80
2023/03/12 12:06:59;;;;;;;1.93;1.83;;;;;;;;;;6219909;28;20026;-78
2023/03/12 12:10:09;;;;;;;3.40;2.10;;;;;;;;;;6228764;28;20022;-80
2023/03/12 12:13:09;;;;;;;0.73;0.73;;;;;;;;;;6236101;28;20029;-79
2023/03/12 12:16:22;;;;;;;1.20;1.13;;;;;;;;;;6237701;28;20030;-77
2023/03/12 12:19:31;;;;;;;0.73;0.73;;;;;;;;;;6229124;28;20452;-75
2023/03/12 12:22:38;;;;;;;0.47;0.47;;;;;;;;;;6234063;28;20523;-77
2023/03/12 12:25:45;;;;;;;1.05;1.05;;;;;;;;;;6238743;28;20369;-77
2023/03/12 12:29:11;;;;;;;0.90;0.90;;;;;;;;;;6237599;28;20069;-79
2023/03/12 12:32:15;;;;;;;0.60;0.60;;;;;;;;;;6202814;28;20052;-79
2023/03/12 12:35:36;;;;;;;0.22;0.22;;;;;;;;;;6238508;28;20041;-79
2023/03/12 12:38:42;;;;;;;0.75;0.75;;;;;;;;;;6231742;28;20550;-79
2023/03/12 12:41:50;;;;;;;2.58;2.35;;;;;;;;;;6231244;28;20036;-78
2023/03/12 12:44:52;;;;;;;2.75;2.45;;;;;;;;;;6232416;28;20028;-78
2023/03/12 12:47:59;;;;;;;0.50;0.50;;;;;;;;;;6245336;28;20022;-78
2023/03/12 12:51:00;;;;;;;1.75;1.00;;;;;;;;;;6245846;28;20086;-79
2023/03/12 12:54:12;;;;;;;0.70;0.70;;;;;;;;;;6235565;28;20026;-78
2023/03/12 12:57:12;;;;;;;;;;;;;;;;;;6245421;28;20023;-78
2023/03/12 13:00:18;;;;;;;0.20;0.20;;;;;;;;;;6245667;28;19909;-79
2023/03/12 13:03:23;;;;;;;0.80;0.80;;;;;;;;;;6241327;28;20022;-78
2023/03/12 13:06:27;;;;;;;5.93;2.88;;;;;;;;;;6237751;28;20068;-77
2023/03/12 13:09:53;;;;;;;0.73;0.70;;;;;;;;;;6242063;28;20013;-78
2023/03/12 13:12:56;;;;;;;1.13;1.13;;;;;;;;;;6230899;28;20472;-78
2023/03/12 13:15:56;;;;;;;;;;;;;;;;;;6237089;28;20028;-79
2023/03/12 13:18:58;;;;;;;1.35;1.00;;;;;;;;;;6238246;28;19913;-79
2023/03/12 13:21:58;;;;;;;0.85;0.85;;;;;;;;;;6242047;28;20092;-78
2023/03/12 13:25:11;;;;;;;0.65;0.65;;;;;;;;;;6245210;28;20467;-80
2023/03/12 13:28:31;;;;;;;0.40;0.40;;;;;;;;;;6245448;28;20112;-79
2023/03/12 13:31:35;;;;;;;0.30;0.30;;;;;;;;;;6241339;28;20029;-79
2023/03/12 13:34:44;;;;;;;2.70;1.67;;;;;;;;;;6241743;28;20060;-78
2023/03/12 13:37:46;;;;;;;0.30;0.30;;;;;;;;;;6245884;28;20032;-78
2023/03/12 13:40:55;;;;;;;2.10;1.98;;;;;;;;;;6239692;28;20029;-78
2023/03/12 13:43:55;;;;;;;0.95;0.95;;;;;;;;;;6241583;28;20376;-78
2023/03/12 13:46:58;;;;;;;0.43;0.43;;;;;;;;;;6246277;28;20036;-78
2023/03/12 13:50:00;;;;;;;0.25;0.25;;;;;;;;;;6244196;28;20072;-78
2023/03/12 13:53:01;;;;;;;0.28;0.28;;;;;;;;;;6243579;28;20108;-78
2023/03/12 13:56:05;;;;;;;3.35;1.25;;;;;;;;;;6230480;28;20026;-78
2023/03/12 13:59:06;;;;;;;0.55;0.55;;;;;;;;;;6240333;28;20045;-77
2023/03/12 14:02:13;;;;;;;0.60;0.60;;;;;;;;;;6241951;28;20033;-78
2023/03/12 14:05:15;;;;;;;0.30;0.30;;;;;;;;;;6245104;28;20480;-78
2023/03/12 14:08:20;;;;;;;1.80;1.70;;;;;;;;;;6241126;28;20032;-79
2023/03/12 14:11:40;;;;;;;1.00;0.93;;;;;;;;;;6242854;28;20029;-79
2023/03/12 14:14:47;;;;;;;0.85;0.85;;;;;;;;;;6245565;28;20021;-78
2023/03/12 14:17:54;;;;;;;0.15;0.15;;;;;;;;;;6229362;28;20060;-78
2023/03/12 14:20:56;;;;;;;0.40;0.40;;;;;;;;;;6242611;28;20495;-78
2023/03/12 14:23:57;;;;;;;0.60;0.60;;;;;;;;;;6239656;28;20428;-78
2023/03/12 14:26:59;;;;;;;0.77;0.77;;;;;;;;;;6244158;28;20017;-79
2023/03/12 14:30:18;;;;;;;0.90;0.68;;;;;;;;;;6221497;28;20026;-78
2023/03/12 14:33:21;;;;;;;0.28;0.28;;;;;;;;;;6244361;28;20032;-79
2023/03/12 14:36:23;;;;;;;0.20;0.20;;;;;;;;;;6244871;28;20020;-79
2023/03/12 14:39:26;;;;;;;0.40;0.40;;;;;;;;;;6244857;28;20014;-79
2023/03/12 14:42:31;;;;;;;0.30;0.30;;;;;;;;;;6244599;28;20029;-79
2023/03/12 14:45:38;;;;;;;1.80;1.70;;;;;;;;;;6237924;28;20021;-79
2023/03/12 14:48:38;;;;;;;1.85;1.75;;;;;;;;;;6226603;28;20047;-79
2023/03/12 14:51:42;;;;;;;0.33;0.33;;;;;;;;;;6240507;28;20038;-79
2023/03/12 14:54:52;;;;;;;0.63;0.63;;;;;;;;;;6244149;28;20468;-79
2023/03/12 14:58:02;;;;;;;0.85;0.85;;;;;;;;;;6242858;28;20021;-78
2023/03/12 15:01:04;;;;;;;0.22;0.22;;;;;;;;;;6229893;28;20053;-78
2023/03/12 15:04:04;;;;;;;;;;;;;;;;;;6236601;28;20112;-79
2023/03/12 15:07:06;;;;;;;1.23;1.00;;;;;;;;;;6231993;28;19939;-78
2023/03/12 15:10:15;;;;;;;0.38;0.38;;;;;;;;;;6242706;28;20029;-78
2023/03/12 15:13:16;;;;;;;4.20;1.75;;;;;;;;;;6233398;28;20021;-78
2023/03/12 15:16:16;;;;;;;0.87;0.87;;;;;;;;;;6236274;28;20547;-76
2023/03/12 15:19:19;;;;;;;0.30;0.30;;;;;;;;;;6227287;28;20051;-78
2023/03/12 15:22:20;;;;;;;0.30;0.30;;;;;;;;;;6226666;28;20102;-78
2023/03/12 15:25:28;;;;;;;0.75;0.75;;;;;;;;;;6236511;28;20036;-80
2023/03/12 15:28:29;;;;;;;2.05;1.95;;;;;;;;;;6234403;28;20092;-79
2023/03/12 15:31:41;;;;;;;1.60;1.60;;;;;;;;;;6235817;28;20021;-78
2023/03/12 15:34:41;;;;;;;1.02;1.02;;;;;;;;;;6243126;28;20377;-79
2023/03/12 15:37:49;;;;;;;0.33;0.33;;;;;;;;;;6244547;28;20100;-78
2023/03/12 15:40:50;;;;;;;7.95;2.00;;;;;;;;;;6239740;28;20479;-79
2023/03/12 15:43:55;;;;;;;0.55;0.55;;;;;;;;;;6243312;28;20523;-79
2023/03/12 15:47:01;;;;;;;1.52;1.42;;;;;;;;;;6242924;28;20089;-78
2023/03/12 15:50:06;;;;;;;2.72;2.53;;;;;;;;;;6239712;28;20403;-80
2023/03/12 15:53:26;;;;;;;0.90;0.90;;;;;;;;;;6232179;28;20404;-79
2023/03/12 15:56:27;;;;;;;1.33;1.27;;;;;;;;;;6244805;28;20025;-80
2023/03/12 15:59:27;;;;;;;0.60;0.60;;;;;;;;;;6241623;28;20018;-79
2023/03/12 16:02:35;;;;;;;2.93;2.67;;;;;;;;;;6229059;28;20434;-80
2023/03/12 16:05:37;;;;;;;0.82;0.82;;;;;;;;;;6228825;28;20022;-79
2023/03/12 16:09:07;;;;;;;1.58;1.13;;;;;;;;;;6233754;28;20010;-80
2023/03/12 16:12:08;;;;;;;1.05;1.00;;;;;;;;;;6230545;28;20029;-79
2023/03/12 16:15:14;;;;;;;2.10;2.00;;;;;;;;;;6249166;28;20070;-81
2023/03/12 16:18:15;;;;;;;1.95;1.85;;;;;;;;;;6245235;28;20028;-80
2023/03/12 16:21:15;;;;;;;1.08;1.08;;;;;;;;;;6247731;28;20420;-79
2023/03/12 16:24:15;;;;;;;0.20;0.20;;;;;;;;;;6235590;28;20056;-78
2023/03/12 16:27:17;;;;;;;0.73;0.73;;;;;;;;;;6247555;28;20010;-79
2023/03/12 16:30:44;;;;;;;0.98;0.93;;;;;;;;;;6247633;28;20140;-78
2023/03/12 16:33:44;;;;;;;0.77;0.77;;;;;;;;;;6244159;28;20037;-78
2023/03/12 16:36:44;;;;;;;5.90;3.10;;;;;;;;;;6247650;28;20017;-78
2023/03/12 16:39:45;;;;;;;0.82;0.82;;;;;;;;;;6245704;28;20013;-79
2023/03/12 16:42:47;;;;;;;0.30;0.30;;;;;;;;;;6239977;28;20049;-79
2023/03/12 16:45:48;;;;;;;0.85;0.85;;;;;;;;;;6246648;28;20376;-79
2023/03/12 16:48:54;;;;;;;0.67;0.67;;;;;;;;;;6245907;28;20021;-78
2023/03/12 16:51:54;;;;;;;5.38;3.88;;;;;;;;;;6247663;28;20085;-78
2023/03/12 16:54:54;;;;;;;14.83;4.00;;;;;;;;;;6246824;28;20018;-78
2023/03/12 16:57:57;;;;;;;0.40;0.40;;;;;;;;;;6247422;28;20384;-79
2023/03/12 17:00:57;;;;;;;1.67;1.63;;;;;;;;;;6247315;28;20022;-79
2023/03/12 17:03:58;;;;;;;1.40;1.40;;;;;;;;;;6247552;28;20029;-79
2023/03/12 17:06:59;;;;;;;7.27;2.37;;;;;;;;;;6243748;28;20112;-79
2023/03/12 17:09:59;;;;;;;2.90;2.70;;;;;;;;;;6243726;28;20029;-79
2023/03/12 17:13:00;;;;;;;11.60;6.35;;;;;;;;;;6235927;28;20018;-79
2023/03/12 17:16:00;;;;;;;6.00;1.90;;;;;;;;;;6239821;28;20094;-79
2023/03/12 17:19:00;;;;;;;0.75;0.75;;;;;;;;;;6234205;28;20034;-79
2023/03/12 17:22:00;;;;;;;0.70;0.70;;;;;;;;;;6232965;28;20538;-79
2023/03/12 17:25:01;;;;;;;4.22;2.72;;;;;;;;;;6232031;28;20023;-79
2023/03/12 17:28:01;;;;;;;0.20;0.20;;;;;;;;;;6238995;28;20066;-79
2023/03/12 17:31:01;;;;;;;3.33;3.13;;;;;;;;;;6234374;28;20021;-79
2023/03/12 17:34:02;;;;;;;0.33;0.33;;;;;;;;;;6232131;28;20022;-79
2023/03/12 17:37:03;;;;;;;1.10;1.10;;;;;;;;;;6236007;28;20018;-79
2023/03/12 17:40:08;;;;;;;1.40;1.30;;;;;;;;;;6239647;28;20807;-79
2023/03/12 17:43:08;;;;;;;1.20;1.10;;;;;;;;;;6239388;28;20026;-79
2023/03/12 17:46:08;;;;;;;1.70;1.60;;;;;;;;;;6227355;28;20057;-79
2023/03/12 17:49:09;;;;;;;0.23;0.23;;;;;;;;;;6235759;28;20022;-79
2023/03/12 17:52:09;;;;;;;3.40;2.10;;;;;;;;;;6233665;28;20666;-79
2023/03/12 17:55:10;;;;;;;1.10;1.10;;;;;;;;;;6232100;28;20022;-80
2023/03/12 17:58:10;;;;;;;5.13;3.55;;;;;;;;;;6233692;28;20079;-79
2023/03/12 18:01:10;;;;;;;3.13;2.92;;;;;;;;;;6235351;28;20029;-79
2023/03/12 18:04:11;;;;;;;0.53;0.53;;;;;;;;;;6243225;28;20109;-80
2023/03/12 18:07:11;;;;;;;0.97;0.97;;;;;;;;;;6242673;28;20057;-79
2023/03/12 18:10:12;;;;;;;1.03;0.97;;;;;;;;;;6239164;28;20018;-79
2023/03/12 18:13:12;;;;;;;2.90;1.77;;;;;;;;;;6235668;28;20025;-80
2023/03/12 18:16:13;;;;;;;2.57;2.37;;;;;;;;;;6233171;28;20029;-78
2023/03/12 18:19:13;;;;;;;2.27;2.17;;;;;;;;;;6235855;28;20570;-79
2023/03/12 18:22:13;;;;;;;0.47;0.47;;;;;;;;;;6240590;28;20032;-79
2023/03/12 18:25:13;;;;;;;0.60;0.60;;;;;;;;;;6244524;28;20080;-80
2023/03/12 18:28:14;;;;;;;0.67;0.67;;;;;;;;;;6243609;28;20495;-78